createdAt,value
2019-02-02T00:01:08.936Z,81.57
2019-02-02T00:03:40.299Z,91.23
2019-02-02T00:06:08.924Z,83.27
2019-02-02T00:08:37.523Z,86.90
2019-02-02T00:11:06.180Z,85.10
2019-02-02T00:13:34.791Z,79.03
2019-02-02T00:16:03.721Z,83.30
2019-02-02T00:18:33.854Z,80.47
2019-02-02T00:21:04.053Z,82.87
2019-02-02T00:23:35.619Z,91.23
2019-02-02T00:26:04.562Z,86.10
2019-02-02T00:28:33.110Z,85.97
2019-02-02T00:31:03.236Z,73.67
2019-02-02T00:33:31.864Z,108.07
2019-02-02T00:36:00.619Z,91.90
2019-02-02T00:38:29.170Z,94.57
2019-02-02T00:40:57.766Z,90.30
2019-02-02T00:43:26.322Z,93.60
2019-02-02T00:45:54.921Z,89.63
2019-02-02T00:48:23.520Z,90.77
2019-02-02T00:50:52.091Z,102.50
2019-02-02T00:53:20.688Z,116.77
2019-02-02T00:55:49.242Z,105.13
2019-02-02T00:58:17.840Z,100.73
2019-02-02T01:00:46.431Z,113.43
2019-02-02T01:03:15.065Z,109.20
2019-02-02T01:05:43.965Z,103.23
2019-02-02T01:08:12.570Z,114.57
2019-02-02T01:10:44.220Z,109.10
2019-02-02T01:13:12.803Z,97.67
2019-02-02T01:15:41.499Z,96.43
2019-02-02T01:18:10.088Z,121.10
2019-02-02T01:20:39.148Z,111.50
2019-02-02T01:23:07.755Z,119.10
2019-02-02T01:25:36.310Z,111.30
2019-02-02T01:28:05.775Z,130.80
2019-02-02T01:30:34.514Z,122.53
2019-02-02T01:33:03.075Z,109.57
2019-02-02T01:35:33.216Z,113.53
2019-02-02T01:38:01.906Z,121.40
2019-02-02T01:40:30.462Z,110.03
2019-02-02T01:42:59.066Z,127.70
2019-02-02T01:45:28.900Z,107.70
2019-02-02T01:47:57.591Z,113.70
2019-02-02T01:50:27.630Z,113.80
2019-02-02T01:52:56.256Z,127.67
2019-02-02T01:55:24.995Z,134.30
2019-02-02T01:57:53.697Z,131.43
2019-02-02T02:00:24.972Z,150.13
2019-02-02T02:02:53.598Z,129.30
2019-02-02T02:05:22.291Z,121.80
2019-02-02T02:07:51.085Z,132.13
2019-02-02T02:10:20.742Z,122.27
2019-02-02T02:12:49.680Z,133.20
2019-02-02T02:15:19.476Z,139.80
2019-02-02T02:17:49.168Z,128.83
2019-02-02T02:20:19.501Z,119.90
2019-02-02T02:22:49.445Z,159.03
2019-02-02T02:25:19.340Z,147.73
2019-02-02T02:27:48.466Z,140.60
2019-02-02T02:30:18.857Z,145.70
2019-02-02T02:32:47.655Z,148.47
2019-02-02T02:35:16.394Z,153.03
2019-02-02T02:37:45.088Z,128.40
2019-02-02T02:40:17.055Z,147.87
2019-02-02T02:42:45.991Z,155.03
2019-02-02T02:45:15.031Z,133.93
2019-02-02T02:47:43.770Z,134.00
2019-02-02T02:50:14.673Z,143.27
2019-02-02T02:52:43.332Z,157.97
2019-02-02T02:55:13.826Z,156.93
2019-02-02T02:57:42.496Z,165.30
2019-02-02T03:00:19.752Z,151.13
2019-02-02T03:02:48.490Z,166.70
2019-02-02T03:05:18.225Z,179.77
2019-02-02T03:07:47.738Z,177.00
2019-02-02T03:10:18.563Z,160.00
2019-02-02T03:12:47.192Z,150.80
2019-02-02T03:15:17.384Z,166.33
2019-02-02T03:17:46.539Z,150.93
2019-02-02T03:20:18.383Z,138.90
2019-02-02T03:22:47.053Z,162.67
2019-02-02T03:25:24.333Z,159.67
2019-02-02T03:27:53.007Z,155.47
2019-02-02T03:30:22.726Z,164.30
2019-02-02T03:32:51.668Z,161.73
2019-02-02T03:35:22.766Z,170.10
2019-02-02T03:37:51.763Z,163.97
2019-02-02T03:40:24.716Z,190.40
2019-02-02T03:42:53.552Z,173.93
2019-02-02T03:45:24.563Z,157.70
2019-02-02T03:47:54.188Z,159.90
2019-02-02T03:50:25.786Z,166.47
2019-02-02T03:52:54.379Z,150.43
2019-02-02T03:55:23.057Z,171.90
2019-02-02T03:57:51.692Z,156.63
2019-02-02T04:00:22.312Z,178.27
2019-02-02T04:02:51.077Z,158.97
2019-02-02T04:05:22.014Z,160.80
2019-02-02T04:07:50.638Z,170.47
2019-02-02T04:10:19.260Z,162.27
2019-02-02T04:12:48.003Z,160.80
2019-02-02T04:15:18.095Z,166.73
2019-02-02T04:17:47.171Z,162.27
2019-02-02T04:20:17.807Z,156.07
2019-02-02T04:22:47.484Z,171.00
2019-02-02T04:25:16.589Z,169.93
2019-02-02T04:27:45.220Z,170.83
2019-02-02T04:30:16.901Z,158.13
2019-02-02T04:32:45.641Z,170.27
2019-02-02T04:35:14.309Z,159.10
2019-02-02T04:37:42.943Z,146.63
2019-02-02T04:40:14.153Z,149.70
2019-02-02T04:42:42.693Z,165.57
2019-02-02T04:45:16.332Z,166.93
2019-02-02T04:47:44.968Z,161.80
2019-02-02T04:50:21.444Z,157.07
2019-02-02T04:52:50.145Z,142.73
2019-02-02T04:55:20.039Z,147.37
2019-02-02T04:57:48.696Z,158.67
2019-02-02T05:00:20.340Z,148.93
2019-02-02T05:02:48.944Z,158.77
2019-02-02T05:05:18.586Z,169.70
2019-02-02T05:07:47.207Z,156.00
2019-02-02T05:10:20.744Z,150.10
2019-02-02T05:12:49.344Z,150.00
2019-02-02T05:15:18.016Z,182.30
2019-02-02T05:17:46.630Z,170.77
2019-02-02T05:20:19.585Z,160.47
2019-02-02T05:22:48.606Z,166.20
2019-02-02T05:25:17.723Z,167.03
2019-02-02T05:27:46.465Z,162.90
2019-02-02T05:30:26.701Z,153.30
2019-02-02T05:32:55.375Z,140.97
2019-02-02T05:35:24.000Z,150.60
2019-02-02T05:37:55.398Z,155.53
2019-02-02T05:40:24.663Z,159.17
2019-02-02T05:42:53.329Z,161.33
2019-02-02T05:45:23.797Z,150.17
2019-02-02T05:47:52.384Z,160.53
2019-02-02T05:50:23.190Z,147.13
2019-02-02T05:52:52.960Z,152.40
2019-02-02T05:55:23.681Z,167.50
2019-02-02T05:57:52.427Z,169.27
2019-02-02T06:03:18.055Z,142.00
2019-02-02T06:05:46.799Z,155.33
2019-02-02T06:08:15.362Z,164.43
2019-02-02T06:10:43.985Z,164.23
2019-02-02T06:13:12.659Z,159.40
2019-02-02T06:15:41.364Z,147.63
2019-02-02T06:18:10.093Z,156.30
2019-02-02T06:20:38.657Z,167.53
2019-02-02T06:23:07.263Z,163.17
2019-02-02T06:25:35.836Z,153.37
2019-02-02T06:28:04.725Z,165.03
2019-02-02T06:30:33.460Z,161.97
2019-02-02T06:33:02.015Z,170.53
2019-02-02T06:35:32.327Z,151.97
2019-02-02T06:38:00.947Z,149.73
2019-02-02T06:40:29.607Z,169.93
2019-02-02T06:42:58.190Z,172.63
2019-02-02T06:45:29.130Z,149.33
2019-02-02T06:47:57.754Z,139.87
2019-02-02T06:50:26.494Z,162.60
2019-02-02T06:52:55.053Z,161.30
2019-02-02T06:55:23.658Z,174.33
2019-02-02T06:57:52.223Z,174.63
2019-02-02T07:00:22.857Z,151.57
2019-02-02T07:02:52.000Z,156.67
2019-02-02T07:05:21.035Z,149.27
2019-02-02T07:07:49.637Z,152.63
2019-02-02T07:10:29.177Z,158.13
2019-02-02T07:12:57.738Z,148.57
2019-02-02T07:15:28.833Z,143.33
2019-02-02T07:17:57.586Z,156.33
2019-02-02T07:20:28.999Z,152.83
2019-02-02T07:22:57.718Z,146.07
2019-02-02T07:25:26.364Z,147.80
2019-02-02T07:27:55.031Z,153.80
2019-02-02T07:30:29.686Z,153.97
2019-02-02T07:32:55.268Z,154.43
2019-02-02T07:35:23.922Z,140.60
2019-02-02T07:37:52.482Z,144.93
2019-02-02T07:40:21.957Z,164.60
2019-02-02T07:42:51.026Z,158.10
2019-02-02T07:45:31.356Z,153.43
2019-02-02T07:48:02.237Z,157.40
2019-02-02T07:50:30.922Z,130.43
2019-02-02T07:53:01.507Z,152.13
2019-02-02T07:55:29.794Z,156.80
2019-02-02T07:57:58.403Z,153.47
2019-02-02T08:00:40.771Z,172.80
2019-02-02T08:03:04.471Z,167.20
2019-02-02T08:05:33.074Z,147.67
2019-02-02T08:08:03.238Z,156.33
2019-02-02T08:10:34.697Z,159.00
2019-02-02T08:13:03.318Z,165.27
2019-02-02T08:15:33.903Z,163.43
2019-02-02T08:18:04.811Z,169.20
2019-02-02T08:20:33.694Z,146.33
2019-02-02T08:23:04.446Z,135.03
2019-02-02T08:25:34.272Z,148.73
2019-02-02T08:28:03.148Z,165.10
2019-02-02T08:30:35.612Z,149.90
2019-02-02T08:33:03.732Z,150.90
2019-02-02T08:35:33.859Z,158.10
2019-02-02T08:38:04.990Z,172.07
2019-02-02T08:40:33.689Z,158.47
2019-02-02T08:43:02.239Z,145.33
2019-02-02T08:45:30.835Z,159.73
2019-02-02T08:48:01.278Z,155.33
2019-02-02T08:50:35.324Z,169.50
2019-02-02T08:53:04.245Z,154.93
2019-02-02T08:55:32.945Z,137.40
2019-02-02T08:58:01.530Z,148.27
2019-02-02T09:00:33.107Z,166.20
2019-02-02T09:03:03.230Z,142.93
2019-02-02T09:05:33.288Z,139.63
2019-02-02T09:08:05.349Z,168.60
2019-02-02T09:10:34.213Z,154.07
2019-02-02T09:13:02.821Z,150.07
2019-02-02T09:15:31.383Z,133.20
2019-02-02T09:18:06.119Z,183.93
2019-02-02T09:20:35.106Z,150.90
2019-02-02T09:23:06.611Z,145.63
2019-02-02T09:25:34.047Z,173.00
2019-02-02T09:28:05.704Z,141.73
2019-02-02T09:30:36.105Z,149.57
2019-02-02T09:33:05.445Z,142.53
2019-02-02T09:35:34.006Z,151.77
2019-02-02T09:38:05.902Z,138.70
2019-02-02T09:40:34.801Z,179.03
2019-02-02T09:43:03.430Z,142.30
2019-02-02T09:45:35.085Z,141.07
2019-02-02T09:48:03.691Z,150.37
2019-02-02T09:50:32.235Z,175.70
2019-02-02T09:53:02.579Z,158.27
2019-02-02T09:55:33.997Z,144.80
2019-02-02T09:58:08.797Z,160.73
2019-02-02T10:00:38.793Z,149.60
2019-02-02T10:03:07.907Z,165.00
2019-02-02T10:05:36.699Z,146.90
2019-02-02T10:08:05.341Z,158.87
2019-02-02T10:10:35.200Z,163.17
2019-02-02T10:13:04.085Z,159.13
2019-02-02T10:15:35.563Z,143.37
2019-02-02T10:18:04.708Z,147.33
2019-02-02T10:20:33.253Z,139.37
2019-02-02T10:23:04.869Z,134.73
2019-02-02T10:25:33.426Z,156.50
2019-02-02T10:28:05.008Z,141.67
2019-02-02T10:30:38.953Z,151.50
2019-02-02T10:33:08.051Z,130.97
2019-02-02T10:35:36.662Z,141.40
2019-02-02T10:38:05.907Z,130.00
2019-02-02T10:40:34.604Z,126.77
2019-02-02T10:43:03.776Z,145.47
2019-02-02T10:45:33.955Z,146.33
2019-02-02T10:48:03.569Z,154.67
2019-02-02T10:50:33.090Z,161.93
2019-02-02T10:53:02.677Z,136.93
2019-02-02T10:55:31.674Z,177.93
2019-02-02T10:58:03.478Z,142.83
2019-02-02T11:00:34.634Z,142.33
2019-02-02T11:03:03.275Z,140.70
2019-02-02T11:05:34.709Z,159.77
2019-02-02T11:08:04.610Z,148.93
2019-02-02T11:10:34.558Z,152.67
2019-02-02T11:13:03.243Z,154.13
2019-02-02T11:15:34.873Z,141.67
2019-02-02T11:18:03.549Z,140.57
2019-02-02T11:20:34.223Z,149.77
2019-02-02T11:23:03.193Z,155.00
2019-02-02T11:25:34.544Z,140.23
2019-02-02T11:28:03.353Z,161.10
2019-02-02T11:30:32.278Z,143.67
2019-02-02T11:33:00.975Z,151.77
2019-02-02T11:35:29.654Z,151.53
2019-02-02T11:37:58.397Z,140.10
2019-02-02T11:40:37.911Z,141.67
2019-02-02T11:43:12.873Z,145.07
2019-02-02T11:45:41.422Z,147.90
2019-02-02T11:48:10.000Z,144.47
2019-02-02T11:50:38.598Z,149.37
2019-02-02T11:53:07.404Z,158.93
2019-02-02T11:55:36.071Z,157.30
2019-02-02T11:58:04.832Z,150.43
2019-02-02T12:00:36.249Z,152.77
2019-02-02T12:03:05.149Z,149.37
2019-02-02T12:05:34.107Z,153.50
2019-02-02T12:08:05.476Z,150.53
2019-02-02T12:10:35.283Z,172.97
2019-02-02T12:13:04.463Z,159.80
2019-02-02T12:15:33.166Z,157.43
2019-02-02T12:18:03.286Z,155.50
2019-02-02T12:20:34.828Z,177.43
2019-02-02T12:23:03.513Z,162.43
2019-02-02T12:25:32.076Z,163.40
2019-02-02T12:28:02.424Z,153.37
2019-02-02T12:30:35.239Z,164.07
2019-02-02T12:33:04.516Z,151.17
2019-02-02T12:35:33.150Z,150.67
2019-02-02T12:38:03.284Z,167.53
2019-02-02T12:40:34.943Z,160.97
2019-02-02T12:43:03.544Z,160.93
2019-02-02T12:45:49.106Z,152.17
2019-02-02T12:48:17.802Z,155.17
2019-02-02T12:50:46.363Z,161.77
2019-02-02T12:53:15.007Z,155.50
2019-02-02T12:55:43.946Z,150.53
2019-02-02T12:58:12.713Z,131.70
2019-02-02T13:00:44.301Z,156.13
2019-02-02T13:03:11.837Z,143.53
2019-02-02T13:05:40.397Z,142.67
2019-02-02T13:08:09.214Z,141.97
2019-02-02T13:10:38.200Z,129.57
2019-02-02T13:13:07.715Z,134.37
2019-02-02T13:15:36.319Z,126.63
2019-02-02T13:18:05.020Z,130.30
2019-02-02T13:20:33.775Z,127.93
2019-02-02T13:23:03.985Z,136.60
2019-02-02T13:25:35.360Z,142.67
2019-02-02T13:28:04.035Z,143.43
2019-02-02T13:30:36.774Z,129.20
2019-02-02T13:33:06.103Z,142.00
2019-02-02T13:35:36.711Z,144.67
2019-02-02T13:38:05.824Z,149.17
2019-02-02T13:40:34.504Z,138.70
2019-02-02T13:43:03.482Z,151.17
2019-02-02T13:45:35.232Z,142.70
2019-02-02T13:48:04.120Z,139.50
2019-02-02T13:50:35.467Z,152.23
2019-02-02T13:53:04.953Z,127.83
2019-02-02T13:55:33.566Z,125.43
2019-02-02T13:58:02.142Z,137.30
2019-02-02T14:00:34.955Z,149.80
2019-02-02T14:03:04.011Z,135.30
2019-02-02T14:05:32.967Z,149.20
2019-02-02T14:08:02.011Z,163.57
2019-02-02T14:10:35.314Z,146.90
2019-02-02T14:13:03.970Z,129.57
2019-02-02T14:15:34.090Z,125.70
2019-02-02T14:18:05.993Z,103.80
2019-02-02T14:20:35.039Z,129.53
2019-02-02T14:23:03.770Z,102.60
2019-02-02T14:25:32.349Z,114.40
2019-02-02T14:28:00.906Z,106.33
2019-02-02T14:30:29.624Z,98.73
2019-02-02T14:32:58.212Z,91.13
2019-02-02T14:35:28.641Z,101.27
2019-02-02T14:37:57.378Z,122.20
2019-02-02T14:40:26.043Z,110.63
2019-02-02T14:42:54.680Z,115.23
2019-02-02T14:45:27.666Z,113.63
2019-02-02T14:47:56.193Z,100.00
2019-02-02T14:50:25.438Z,105.63
2019-02-02T14:52:57.012Z,104.03
2019-02-02T14:55:27.864Z,113.50
2019-02-02T14:57:56.491Z,108.17
2019-02-02T15:00:27.338Z,109.70
2019-02-02T15:02:56.378Z,102.50
2019-02-02T15:05:25.109Z,107.90
2019-02-02T15:07:53.696Z,110.00
2019-02-02T15:10:23.093Z,125.67
2019-02-02T15:12:51.836Z,133.80
2019-02-02T15:15:23.588Z,113.80
2019-02-02T15:17:52.256Z,108.50
2019-02-02T15:20:26.551Z,107.40
2019-02-02T15:22:55.151Z,113.23
2019-02-02T15:25:23.951Z,110.10
2019-02-02T15:27:52.692Z,111.03
2019-02-02T15:30:24.232Z,104.83
2019-02-02T15:32:53.024Z,105.80
2019-02-02T15:35:21.679Z,102.27
2019-02-02T15:37:50.417Z,101.17
2019-02-02T15:40:20.372Z,108.40
2019-02-02T15:42:49.075Z,100.87
2019-02-02T15:45:38.023Z,125.43
2019-02-02T15:48:06.763Z,102.60
2019-02-02T15:50:35.528Z,102.87
2019-02-02T15:53:04.440Z,105.93
2019-02-02T15:55:33.665Z,107.53
2019-02-02T15:58:03.826Z,102.33
2019-02-02T16:00:37.421Z,122.67
2019-02-02T16:03:06.378Z,120.67
2019-02-02T16:05:55.721Z,118.87
2019-02-02T16:08:24.444Z,112.80
2019-02-02T16:10:58.650Z,116.10
2019-02-02T16:13:27.751Z,130.17
2019-02-02T16:15:56.820Z,123.33
2019-02-02T16:18:25.404Z,125.53
2019-02-02T16:20:54.033Z,128.83
2019-02-02T16:23:22.634Z,132.77
2019-02-02T16:25:51.196Z,132.10
2019-02-02T16:28:19.920Z,145.97
2019-02-02T16:30:48.728Z,138.53
2019-02-02T16:33:17.295Z,152.80
2019-02-02T16:35:45.971Z,135.37
2019-02-02T16:38:14.620Z,150.37
2019-02-02T16:40:43.744Z,150.07
2019-02-02T16:43:12.488Z,135.53
2019-02-02T16:45:41.445Z,171.40
2019-02-02T16:48:10.058Z,183.10
2019-02-02T16:50:38.775Z,165.20
2019-02-02T16:53:07.375Z,179.83
2019-02-02T16:55:36.012Z,170.57
2019-02-02T16:58:05.223Z,196.23
2019-02-02T17:00:34.547Z,163.00
2019-02-02T17:03:03.224Z,159.03
2019-02-02T17:05:34.740Z,170.53
2019-02-02T17:08:03.431Z,169.60
2019-02-02T17:10:34.438Z,182.50
2019-02-02T17:13:03.109Z,152.07
2019-02-02T17:15:33.267Z,147.20
2019-02-02T17:18:02.163Z,160.47
2019-02-02T17:20:55.857Z,161.00
2019-02-02T17:23:24.465Z,177.27
2019-02-02T17:25:53.014Z,140.17
2019-02-02T17:28:21.748Z,171.43
2019-02-02T17:30:50.473Z,165.20
2019-02-02T17:33:19.167Z,175.57
2019-02-02T17:35:47.723Z,199.83
2019-02-02T17:38:16.324Z,165.90
2019-02-02T17:40:45.347Z,173.47
2019-02-02T17:43:14.239Z,162.97
2019-02-02T17:45:43.199Z,195.57
2019-02-02T17:48:13.254Z,181.87
2019-02-02T17:50:42.105Z,190.30
2019-02-02T17:53:10.782Z,176.93
2019-02-02T17:55:39.428Z,187.00
2019-02-02T17:58:08.031Z,161.73
2019-02-02T18:00:41.463Z,192.27
2019-02-02T18:03:10.018Z,172.33
2019-02-02T18:05:38.624Z,169.40
2019-02-02T18:08:07.342Z,181.03
2019-02-02T18:10:35.937Z,189.70
2019-02-02T18:13:05.042Z,196.97
2019-02-02T18:15:33.761Z,164.13
2019-02-02T18:18:04.138Z,177.70
2019-02-02T18:20:35.702Z,182.53
2019-02-02T18:23:04.951Z,160.27
2019-02-02T18:25:33.561Z,177.93
2019-02-02T18:28:02.286Z,154.40
2019-02-02T18:30:30.916Z,168.30
2019-02-02T18:32:59.589Z,165.30
2019-02-02T18:35:28.173Z,161.57
2019-02-02T18:37:56.769Z,155.73
2019-02-02T18:40:25.956Z,166.83
2019-02-02T18:42:54.744Z,159.40
2019-02-02T18:45:25.590Z,174.90
2019-02-02T18:47:54.321Z,170.57
2019-02-02T18:50:23.066Z,171.47
2019-02-02T18:52:53.702Z,170.70
2019-02-02T18:55:28.745Z,155.43
2019-02-02T18:57:57.456Z,152.53
2019-02-02T19:00:26.136Z,154.37
2019-02-02T19:02:55.246Z,165.73
2019-02-02T19:05:23.938Z,148.37
2019-02-02T19:07:53.021Z,142.23
2019-02-02T19:10:24.785Z,141.97
2019-02-02T19:12:53.370Z,146.00
2019-02-02T19:15:22.101Z,139.73
2019-02-02T19:17:51.181Z,142.63
2019-02-02T19:20:23.578Z,129.33
2019-02-02T19:22:57.228Z,136.27
2019-02-02T19:25:25.574Z,144.03
2019-02-02T19:27:54.167Z,151.70
2019-02-02T19:30:28.671Z,133.23
2019-02-02T19:32:57.425Z,140.57
2019-02-02T19:35:26.424Z,129.83
2019-02-02T19:37:55.102Z,116.60
2019-02-02T19:40:23.903Z,123.50
2019-02-02T19:42:52.592Z,158.73
2019-02-02T19:45:23.808Z,117.93
2019-02-02T19:47:52.883Z,122.03
2019-02-02T19:50:24.604Z,105.30
2019-02-02T19:52:53.721Z,95.33
2019-02-02T19:55:23.053Z,118.87
2019-02-02T19:57:52.129Z,115.93
2019-02-02T20:00:26.132Z,116.33
2019-02-02T20:02:55.558Z,114.40
2019-02-02T20:05:28.825Z,122.43
2019-02-02T20:07:54.687Z,102.10
2019-02-02T20:10:23.899Z,105.43
2019-02-02T20:12:56.193Z,115.77
2019-02-02T20:15:28.513Z,106.90
2019-02-02T20:18:08.882Z,104.63
2019-02-02T20:20:28.967Z,98.50
2019-02-02T20:22:57.908Z,102.97
2019-02-02T20:25:27.579Z,117.83
2019-02-02T20:27:56.310Z,109.37
2019-02-02T20:30:27.231Z,120.10
2019-02-02T20:32:56.534Z,116.53
2019-02-02T20:35:25.111Z,106.40
2019-02-02T20:37:53.969Z,123.00
2019-02-02T20:40:24.332Z,101.93
2019-02-02T20:42:53.393Z,113.30
2019-02-02T20:45:41.610Z,121.50
2019-02-02T20:48:10.630Z,107.83
2019-02-02T20:50:39.647Z,98.80
2019-02-02T20:53:08.819Z,125.70
2019-02-02T20:55:40.556Z,121.20
2019-02-02T20:58:09.364Z,109.80
2019-02-02T21:00:38.844Z,98.20
2019-02-02T21:03:07.593Z,108.80
2019-02-02T21:05:36.310Z,106.17
2019-02-02T21:08:05.582Z,111.60
2019-02-02T21:10:34.363Z,111.70
2019-02-02T21:13:24.203Z,108.33
2019-02-02T21:15:52.880Z,119.30
2019-02-02T21:18:21.457Z,100.87
2019-02-02T21:20:51.006Z,102.50
2019-02-02T21:23:19.739Z,91.60
2019-02-02T21:25:48.405Z,113.07
2019-02-02T21:28:16.990Z,94.17
2019-02-02T21:30:46.022Z,119.87
2019-02-02T21:33:14.877Z,111.47
2019-02-02T21:35:43.505Z,125.37
2019-02-02T21:38:12.143Z,112.17
2019-02-02T21:40:40.854Z,125.13
2019-02-02T21:43:09.730Z,128.60
2019-02-02T21:45:38.577Z,118.63
2019-02-02T21:48:07.388Z,122.10
2019-02-02T21:50:39.318Z,135.63
2019-02-02T21:53:08.522Z,129.67
2019-02-02T21:55:37.328Z,131.13
2019-02-02T21:58:06.952Z,126.63
2019-02-02T22:00:38.819Z,119.83
2019-02-02T22:03:10.039Z,128.23
2019-02-02T22:05:38.964Z,132.33
2019-02-02T22:08:08.026Z,148.30
2019-02-02T22:10:36.709Z,131.73
2019-02-02T22:13:06.531Z,141.77
2019-02-02T22:15:35.293Z,158.27
2019-02-02T22:18:04.019Z,146.00
2019-02-02T22:20:35.514Z,152.50
2019-02-02T22:23:04.222Z,147.33
2019-02-02T22:25:33.710Z,153.90
2019-02-02T22:28:02.358Z,139.93
2019-02-02T22:30:38.100Z,171.97
2019-02-02T22:33:06.906Z,173.23
2019-02-02T22:35:35.547Z,175.53
2019-02-02T22:38:04.392Z,184.13
2019-02-02T22:40:33.494Z,160.97
2019-02-02T22:43:02.435Z,171.80
2019-02-02T22:45:34.041Z,167.73
2019-02-02T22:48:06.467Z,172.27
2019-02-02T22:50:35.020Z,149.47
2019-02-02T22:53:04.102Z,157.87
2019-02-02T22:55:32.676Z,148.07
2019-02-02T22:58:01.285Z,158.37
2019-02-02T23:00:43.265Z,146.40
2019-02-02T23:03:24.415Z,118.53
2019-02-02T23:05:59.565Z,143.53
2019-02-02T23:08:40.207Z,118.87
2019-02-02T23:11:14.939Z,129.33
2019-02-02T23:13:58.498Z,133.53
2019-02-02T23:16:28.325Z,157.37
2019-02-02T23:18:57.070Z,129.57
2019-02-02T23:21:26.158Z,134.83
2019-02-02T23:23:55.101Z,133.43
2019-02-02T23:26:23.656Z,144.37
2019-02-02T23:28:52.283Z,112.33
2019-02-02T23:31:21.713Z,116.80
2019-02-02T23:33:50.282Z,97.73
2019-02-02T23:36:19.053Z,122.57
2019-02-02T23:38:47.602Z,88.27
2019-02-02T23:41:16.239Z,90.13
2019-02-02T23:43:44.824Z,79.90
2019-02-02T23:46:13.776Z,65.53
2019-02-02T23:48:42.377Z,73.83
2019-02-02T23:51:10.927Z,67.00
2019-02-02T23:53:39.681Z,76.63
2019-02-02T23:56:08.320Z,49.67
2019-02-02T23:58:36.922Z,51.63
